sensor_id;sensor_type;location;lat;lon;timestamp;pressure;altitude;pressure_sealevel;temperature;humidity
47374;BME280;33123;50.118;10.272;2023-05-19T00:02:17;98408.09;;;11.14;53.52
47374;BME280;33123;50.118;10.272;2023-05-19T00:04:45;98402.94;;;11.07;53.62
47374;BME280;33123;50.118;10.272;2023-05-19T00:07:16;98391.38;;;10.97;53.87
47374;BME280;33123;50.118;10.272;2023-05-19T00:09:44;98399.16;;;11.03;53.69
47374;BME280;33123;50.118;10.272;2023-05-19T00:12:13;98405.34;;;10.97;53.81
47374;BME280;33123;50.118;10.272;2023-05-19T00:14:40;98398.94;;;10.93;53.99
47374;BME280;33123;50.118;10.272;2023-05-19T00:17:08;98380.16;;;10.78;54.37
47374;BME280;33123;50.118;10.272;2023-05-19T00:19:34;98391.38;;;10.85;54.21
47374;BME280;33123;50.118;10.272;2023-05-19T00:22:02;98368.78;;;10.66;54.38
47374;BME280;33123;50.118;10.272;2023-05-19T00:24:29;98394.94;;;10.79;54.46
47374;BME280;33123;50.118;10.272;2023-05-19T00:26:56;98356.66;;;10.53;54.41
47374;BME280;33123;50.118;10.272;2023-05-19T00:29:24;98391.16;;;10.75;54.69
47374;BME280;33123;50.118;10.272;2023-05-19T00:31:50;98361.81;;;10.48;54.77
47374;BME280;33123;50.118;10.272;2023-05-19T00:34:17;98377.63;;;10.60;54.77
47374;BME280;33123;50.118;10.272;2023-05-19T00:36:43;98342.00;;;10.34;54.61
47374;BME280;33123;50.118;10.272;2023-05-19T00:39:10;98329.56;;;10.22;55.13
47374;BME280;33123;50.118;10.272;2023-05-19T00:41:37;98386.13;;;10.62;55.11
47374;BME280;33123;50.118;10.272;2023-05-19T00:44:05;98387.59;;;10.57;55.09
47374;BME280;33123;50.118;10.272;2023-05-19T00:46:33;98380.13;;;10.54;55.63
47374;BME280;33123;50.118;10.272;2023-05-19T00:49:00;98363.50;;;10.42;55.40
47374;BME280;33123;50.118;10.272;2023-05-19T00:51:27;98379.13;;;10.44;55.53
47374;BME280;33123;50.118;10.272;2023-05-19T00:53:54;98374.06;;;10.42;55.72
47374;BME280;33123;50.118;10.272;2023-05-19T00:56:21;98381.03;;;10.37;55.86
47374;BME280;33123;50.118;10.272;2023-05-19T00:58:49;98365.66;;;10.22;56.03
47374;BME280;33123;50.118;10.272;2023-05-19T01:01:16;98343.63;;;10.04;55.70
47374;BME280;33123;50.118;10.272;2023-05-19T01:03:47;98322.06;;;9.84;56.20
47374;BME280;33123;50.118;10.272;2023-05-19T01:06:13;98380.22;;;10.24;56.33
47374;BME280;33123;50.118;10.272;2023-05-19T01:08:43;98380.88;;;10.20;56.29
47374;BME280;33123;50.118;10.272;2023-05-19T01:11:10;98379.84;;;10.21;56.65
47374;BME280;33123;50.118;10.272;2023-05-19T01:13:36;98245.94;;;9.29;56.66
47374;BME280;33123;50.118;10.272;2023-05-19T01:16:06;98379.16;;;10.14;56.60
47374;BME280;33123;50.118;10.272;2023-05-19T01:18:42;98382.81;;;10.13;56.84
47374;BME280;33123;50.118;10.272;2023-05-19T01:21:34;98390.59;;;10.08;56.83
47374;BME280;33123;50.118;10.272;2023-05-19T01:24:23;98314.31;;;9.59;57.08
47374;BME280;33123;50.118;10.272;2023-05-19T01:27:21;98383.03;;;9.99;56.96
47374;BME280;33123;50.118;10.272;2023-05-19T01:30:17;98381.84;;;9.95;57.40
47374;BME280;33123;50.118;10.272;2023-05-19T01:32:48;98294.47;;;9.33;57.59
47374;BME280;33123;50.118;10.272;2023-05-19T01:35:16;98381.94;;;9.89;57.77
47374;BME280;33123;50.118;10.272;2023-05-19T01:37:44;98386.06;;;9.85;57.63
47374;BME280;33123;50.118;10.272;2023-05-19T01:40:12;98377.91;;;9.86;57.63
47374;BME280;33123;50.118;10.272;2023-05-19T01:42:39;98278.03;;;9.19;57.57
47374;BME280;33123;50.118;10.272;2023-05-19T01:45:07;98380.00;;;9.84;57.91
47374;BME280;33123;50.118;10.272;2023-05-19T01:47:40;98381.44;;;9.80;57.92
47374;BME280;33123;50.118;10.272;2023-05-19T01:50:07;98310.56;;;9.37;57.94
47374;BME280;33123;50.118;10.272;2023-05-19T01:52:34;98379.25;;;9.77;58.29
47374;BME280;33123;50.118;10.272;2023-05-19T01:55:01;98366.06;;;9.65;57.98
47374;BME280;33123;50.118;10.272;2023-05-19T01:57:33;98375.03;;;9.76;58.34
47374;BME280;33123;50.118;10.272;2023-05-19T02:00:08;98375.50;;;9.73;58.39
47374;BME280;33123;50.118;10.272;2023-05-19T02:02:44;98374.44;;;9.74;58.28
47374;BME280;33123;50.118;10.272;2023-05-19T02:05:19;98366.41;;;9.69;58.50
47374;BME280;33123;50.118;10.272;2023-05-19T02:07:57;98366.78;;;9.72;58.30
47374;BME280;33123;50.118;10.272;2023-05-19T02:10:27;98366.56;;;9.74;58.64
47374;BME280;33123;50.118;10.272;2023-05-19T02:12:58;98361.84;;;9.76;58.61
47374;BME280;33123;50.118;10.272;2023-05-19T02:15:29;98363.47;;;9.77;58.32
47374;BME280;33123;50.118;10.272;2023-05-19T02:18:00;98360.41;;;9.80;58.39
47374;BME280;33123;50.118;10.272;2023-05-19T02:20:28;98318.16;;;9.45;58.51
47374;BME280;33123;50.118;10.272;2023-05-19T02:22:55;98363.03;;;9.80;58.20
47374;BME280;33123;50.118;10.272;2023-05-19T02:25:22;98353.53;;;9.79;58.25
47374;BME280;33123;50.118;10.272;2023-05-19T02:27:49;98327.59;;;9.64;58.42
47374;BME280;33123;50.118;10.272;2023-05-19T02:30:16;98235.34;;;9.06;58.52
47374;BME280;33123;50.118;10.272;2023-05-19T02:32:42;98313.84;;;9.50;58.66
47374;BME280;33123;50.118;10.272;2023-05-19T02:35:12;98225.72;;;8.99;58.44
47374;BME280;33123;50.118;10.272;2023-05-19T02:37:39;98313.38;;;9.53;58.06
47374;BME280;33123;50.118;10.272;2023-05-19T02:40:07;98352.72;;;9.78;58.35
47374;BME280;33123;50.118;10.272;2023-05-19T02:42:33;98355.34;;;9.78;58.29
47374;BME280;33123;50.118;10.272;2023-05-19T02:45:00;98358.78;;;9.79;58.54
47374;BME280;33123;50.118;10.272;2023-05-19T02:47:26;98357.75;;;9.80;58.71
47374;BME280;33123;50.118;10.272;2023-05-19T02:49:53;98353.97;;;9.76;58.39
47374;BME280;33123;50.118;10.272;2023-05-19T02:52:21;98357.06;;;9.73;58.21
47374;BME280;33123;50.118;10.272;2023-05-19T02:54:47;98352.38;;;9.75;58.17
47374;BME280;33123;50.118;10.272;2023-05-19T02:57:14;98326.91;;;9.57;58.48
47374;BME280;33123;50.118;10.272;2023-05-19T02:59:41;98307.56;;;9.51;58.48
47374;BME280;33123;50.118;10.272;2023-05-19T03:02:08;98330.47;;;9.63;58.49
47374;BME280;33123;50.118;10.272;2023-05-19T03:04:34;98330.38;;;9.69;58.70
47374;BME280;33123;50.118;10.272;2023-05-19T03:07:07;98350.78;;;9.86;58.51
47374;BME280;33123;50.118;10.272;2023-05-19T03:09:36;98348.16;;;9.86;58.13
47374;BME280;33123;50.118;10.272;2023-05-19T03:12:03;98346.69;;;9.90;58.40
47374;BME280;33123;50.118;10.272;2023-05-19T03:14:32;98347.25;;;9.92;58.99
47374;BME280;33123;50.118;10.272;2023-05-19T03:16:59;98342.34;;;9.95;59.07
47374;BME280;33123;50.118;10.272;2023-05-19T03:19:26;98346.59;;;9.96;58.76
47374;BME280;33123;50.118;10.272;2023-05-19T03:21:52;98341.69;;;10.00;58.04
47374;BME280;33123;50.118;10.272;2023-05-19T03:24:20;98349.91;;;10.03;58.78
47374;BME280;33123;50.118;10.272;2023-05-19T03:26:48;98332.84;;;9.94;58.73
47374;BME280;33123;50.118;10.272;2023-05-19T03:29:15;98351.19;;;10.13;59.07
47374;BME280;33123;50.118;10.272;2023-05-19T03:31:42;98342.63;;;10.17;58.29
47374;BME280;33123;50.118;10.272;2023-05-19T03:34:08;98301.34;;;9.88;58.24
47374;BME280;33123;50.118;10.272;2023-05-19T03:36:35;98344.59;;;10.22;58.26
47374;BME280;33123;50.118;10.272;2023-05-19T03:39:03;98341.28;;;10.26;58.53
47374;BME280;33123;50.118;10.272;2023-05-19T03:41:30;98313.16;;;10.09;57.94
47374;BME280;33123;50.118;10.272;2023-05-19T03:43:58;98350.91;;;10.32;57.92
47374;BME280;33123;50.118;10.272;2023-05-19T03:46:24;98284.44;;;9.95;57.81
47374;BME280;33123;50.118;10.272;2023-05-19T03:48:51;98310.78;;;10.07;57.57
47374;BME280;33123;50.118;10.272;2023-05-19T03:51:17;98287.06;;;9.95;57.58
47374;BME280;33123;50.118;10.272;2023-05-19T03:53:44;98343.59;;;10.35;57.32
47374;BME280;33123;50.118;10.272;2023-05-19T03:56:11;98349.31;;;10.43;57.49
47374;BME280;33123;50.118;10.272;2023-05-19T03:58:38;98351.94;;;10.43;57.14
47374;BME280;33123;50.118;10.272;2023-05-19T04:01:06;98351.50;;;10.46;57.23
47374;BME280;33123;50.118;10.272;2023-05-19T04:03:33;98353.09;;;10.47;57.69
47374;BME280;33123;50.118;10.272;2023-05-19T04:05:59;98285.22;;;10.08;57.32
47374;BME280;33123;50.118;10.272;2023-05-19T04:08:26;98349.53;;;10.53;56.81
47374;BME280;33123;50.118;10.272;2023-05-19T04:10:52;98347.50;;;10.55;57.07
47374;BME280;33123;50.118;10.272;2023-05-19T04:13:20;98354.94;;;10.58;56.64
47374;BME280;33123;50.118;10.272;2023-05-19T04:15:46;98311.72;;;10.36;57.44
47374;BME280;33123;50.118;10.272;2023-05-19T04:18:14;98307.03;;;10.38;57.50
47374;BME280;33123;50.118;10.272;2023-05-19T04:20:41;98329.84;;;10.56;57.13
47374;BME280;33123;50.118;10.272;2023-05-19T04:23:07;98352.41;;;10.75;57.22
47374;BME280;33123;50.118;10.272;2023-05-19T04:25:34;98272.69;;;10.33;56.73
47374;BME280;33123;50.118;10.272;2023-05-19T04:28:01;98352.50;;;10.92;56.51
47374;BME280;33123;50.118;10.272;2023-05-19T04:30:28;98330.63;;;10.80;56.06
47374;BME280;33123;50.118;10.272;2023-05-19T04:32:55;98358.75;;;11.15;56.51
47374;BME280;33123;50.118;10.272;2023-05-19T04:35:23;98308.34;;;10.99;56.12
47374;BME280;33123;50.118;10.272;2023-05-19T04:37:50;98358.00;;;11.43;55.64
47374;BME280;33123;50.118;10.272;2023-05-19T04:40:18;98356.44;;;11.58;55.63
47374;BME280;33123;50.118;10.272;2023-05-19T04:42:48;98335.91;;;11.60;55.19
47374;BME280;33123;50.118;10.272;2023-05-19T04:45:16;98359.78;;;11.94;54.43
47374;BME280;33123;50.118;10.272;2023-05-19T04:47:43;98359.00;;;12.10;54.03
47374;BME280;33123;50.118;10.272;2023-05-19T04:50:11;98315.59;;;12.06;53.77
47374;BME280;33123;50.118;10.272;2023-05-19T04:52:39;98351.69;;;12.51;53.44
47374;BME280;33123;50.118;10.272;2023-05-19T04:55:07;98327.81;;;12.46;52.17
47374;BME280;33123;50.118;10.272;2023-05-19T04:57:35;98344.16;;;12.82;51.55
47374;BME280;33123;50.118;10.272;2023-05-19T05:00:05;98263.25;;;12.42;52.22
47374;BME280;33123;50.118;10.272;2023-05-19T05:02:36;98358.59;;;13.13;50.23
47374;BME280;33123;50.118;10.272;2023-05-19T05:05:03;98352.91;;;13.21;50.50
47374;BME280;33123;50.118;10.272;2023-05-19T05:07:29;98309.50;;;13.00;50.93
47374;BME280;33123;50.118;10.272;2023-05-19T05:09:57;98350.69;;;13.35;50.34
47374;BME280;33123;50.118;10.272;2023-05-19T05:12:24;98330.50;;;13.29;50.77
47374;BME280;33123;50.118;10.272;2023-05-19T05:14:52;98342.63;;;13.46;50.58
47374;BME280;33123;50.118;10.272;2023-05-19T05:17:19;98262.91;;;12.99;50.07
47374;BME280;33123;50.118;10.272;2023-05-19T05:19:46;98312.03;;;13.34;49.57
47374;BME280;33123;50.118;10.272;2023-05-19T05:22:13;98340.69;;;13.64;49.96
47374;BME280;33123;50.118;10.272;2023-05-19T05:24:40;98347.94;;;13.73;49.96
47374;BME280;33123;50.118;10.272;2023-05-19T05:27:08;98339.78;;;13.80;49.83
47374;BME280;33123;50.118;10.272;2023-05-19T05:29:35;98231.50;;;13.30;49.31
47374;BME280;33123;50.118;10.272;2023-05-19T05:32:01;98322.84;;;14.13;48.20
47374;BME280;33123;50.118;10.272;2023-05-19T05:34:28;98348.03;;;14.48;47.98
47374;BME280;33123;50.118;10.272;2023-05-19T05:36:55;98296.50;;;14.34;47.80
47374;BME280;33123;50.118;10.272;2023-05-19T05:39:21;98333.41;;;14.83;46.64
47374;BME280;33123;50.118;10.272;2023-05-19T05:41:48;98284.72;;;14.57;46.60
47374;BME280;33123;50.118;10.272;2023-05-19T05:44:16;98333.44;;;14.93;45.73
47374;BME280;33123;50.118;10.272;2023-05-19T05:46:43;98251.50;;;14.49;46.81
47374;BME280;33123;50.118;10.272;2023-05-19T05:49:10;98279.50;;;14.72;47.29
47374;BME280;33123;50.118;10.272;2023-05-19T05:51:38;98346.03;;;15.13;46.11
47374;BME280;33123;50.118;10.272;2023-05-19T05:54:06;98349.47;;;15.13;44.79
47374;BME280;33123;50.118;10.272;2023-05-19T05:56:33;98286.94;;;14.75;46.22
47374;BME280;33123;50.118;10.272;2023-05-19T05:59:01;98329.81;;;15.09;46.45
47374;BME280;33123;50.118;10.272;2023-05-19T06:01:29;98331.22;;;15.27;46.18
47374;BME280;33123;50.118;10.272;2023-05-19T06:03:56;98357.59;;;15.54;44.77
47374;BME280;33123;50.118;10.272;2023-05-19T06:06:22;98352.91;;;15.71;46.08
47374;BME280;33123;50.118;10.272;2023-05-19T06:08:49;98351.31;;;15.96;45.66
47374;BME280;33123;50.118;10.272;2023-05-19T06:11:15;98318.34;;;15.97;44.42
47374;BME280;33123;50.118;10.272;2023-05-19T06:13:43;98355.06;;;16.56;44.01
47374;BME280;33123;50.118;10.272;2023-05-19T06:16:10;98346.00;;;16.82;42.93
47374;BME280;33123;50.118;10.272;2023-05-19T06:18:38;98342.13;;;17.14;43.07
47374;BME280;33123;50.118;10.272;2023-05-19T06:21:04;98338.00;;;17.47;43.29
47374;BME280;33123;50.118;10.272;2023-05-19T06:23:31;98339.13;;;17.85;42.11
47374;BME280;33123;50.118;10.272;2023-05-19T06:25:57;98342.38;;;18.16;41.74
47374;BME280;33123;50.118;10.272;2023-05-19T06:28:24;98336.63;;;18.33;41.70
47374;BME280;33123;50.118;10.272;2023-05-19T06:30:51;98231.34;;;17.91;40.32
47374;BME280;33123;50.118;10.272;2023-05-19T06:33:17;98319.81;;;18.62;40.32
47374;BME280;33123;50.118;10.272;2023-05-19T06:35:45;98334.16;;;18.71;38.44
47374;BME280;33123;50.118;10.272;2023-05-19T06:38:12;98326.63;;;18.78;38.72
47374;BME280;33123;50.118;10.272;2023-05-19T06:40:39;98333.84;;;18.78;38.72
47374;BME280;33123;50.118;10.272;2023-05-19T06:43:06;98296.03;;;18.36;39.44
47374;BME280;33123;50.118;10.272;2023-05-19T06:45:32;98318.97;;;18.37;38.95
47374;BME280;33123;50.118;10.272;2023-05-19T06:47:59;98346.47;;;18.38;40.38
47374;BME280;33123;50.118;10.272;2023-05-19T06:50:26;98342.56;;;18.25;39.52
47374;BME280;33123;50.118;10.272;2023-05-19T06:52:54;98299.97;;;17.81;39.20
47374;BME280;33123;50.118;10.272;2023-05-19T06:55:21;98344.94;;;17.92;38.95
47374;BME280;33123;50.118;10.272;2023-05-19T06:57:48;98316.28;;;17.69;39.12
47374;BME280;33123;50.118;10.272;2023-05-19T07:00:15;98333.53;;;17.82;39.50
47374;BME280;33123;50.118;10.272;2023-05-19T07:02:43;98264.16;;;17.48;38.80
47374;BME280;33123;50.118;10.272;2023-05-19T07:05:09;98339.22;;;18.09;38.60
47374;BME280;33123;50.118;10.272;2023-05-19T07:07:36;98341.13;;;18.04;38.28
47374;BME280;33123;50.118;10.272;2023-05-19T07:10:05;98315.56;;;17.98;39.23
47374;BME280;33123;50.118;10.272;2023-05-19T07:12:31;98300.44;;;18.22;39.25
47374;BME280;33123;50.118;10.272;2023-05-19T07:14:58;98242.88;;;18.40;38.85
47374;BME280;33123;50.118;10.272;2023-05-19T07:17:24;98338.22;;;19.35;36.64
47374;BME280;33123;50.118;10.272;2023-05-19T07:19:51;98316.06;;;19.35;36.20
47374;BME280;33123;50.118;10.272;2023-05-19T07:22:18;98341.13;;;19.58;36.19
47374;BME280;33123;50.118;10.272;2023-05-19T07:24:44;98317.50;;;19.27;35.68
47374;BME280;33123;50.118;10.272;2023-05-19T07:27:12;98322.78;;;19.32;35.52
47374;BME280;33123;50.118;10.272;2023-05-19T07:29:39;98219.94;;;18.63;36.39
47374;BME280;33123;50.118;10.272;2023-05-19T07:32:05;98293.63;;;19.12;37.06
47374;BME280;33123;50.118;10.272;2023-05-19T07:34:32;98333.38;;;19.37;37.50
47374;BME280;33123;50.118;10.272;2023-05-19T07:36:59;98324.88;;;19.54;37.78
47374;BME280;33123;50.118;10.272;2023-05-19T07:39:26;98316.34;;;19.52;36.77
47374;BME280;33123;50.118;10.272;2023-05-19T07:41:53;98326.97;;;19.57;36.35
47374;BME280;33123;50.118;10.272;2023-05-19T07:44:22;98333.50;;;19.70;37.18
47374;BME280;33123;50.118;10.272;2023-05-19T07:46:48;98266.06;;;18.92;35.33
47374;BME280;33123;50.118;10.272;2023-05-19T07:49:15;98307.84;;;19.26;35.89
47374;BME280;33123;50.118;10.272;2023-05-19T07:51:41;98326.25;;;19.09;36.24
47374;BME280;33123;50.118;10.272;2023-05-19T07:54:08;98287.06;;;18.80;37.88
47374;BME280;33123;50.118;10.272;2023-05-19T07:56:34;98300.16;;;18.77;38.08
47374;BME280;33123;50.118;10.272;2023-05-19T07:59:02;98328.38;;;19.12;37.76
47374;BME280;33123;50.118;10.272;2023-05-19T08:01:30;98323.50;;;18.95;37.40
47374;BME280;33123;50.118;10.272;2023-05-19T08:03:57;98284.06;;;18.58;37.34
47374;BME280;33123;50.118;10.272;2023-05-19T08:06:23;98317.16;;;18.86;37.35
47374;BME280;33123;50.118;10.272;2023-05-19T08:08:50;98321.22;;;18.83;37.84
47374;BME280;33123;50.118;10.272;2023-05-19T08:11:19;98251.28;;;18.52;37.20
47374;BME280;33123;50.118;10.272;2023-05-19T08:13:46;98292.28;;;18.90;37.74
47374;BME280;33123;50.118;10.272;2023-05-19T08:16:13;98305.91;;;19.13;37.25
47374;BME280;33123;50.118;10.272;2023-05-19T08:18:41;98278.81;;;19.01;39.55
47374;BME280;33123;50.118;10.272;2023-05-19T08:21:08;98268.88;;;19.25;39.06
47374;BME280;33123;50.118;10.272;2023-05-19T08:23:34;98304.13;;;20.02;36.97
47374;BME280;33123;50.118;10.272;2023-05-19T08:26:03;98302.41;;;20.72;37.96
47374;BME280;33123;50.118;10.272;2023-05-19T08:28:29;98298.78;;;21.45;37.45
47374;BME280;33123;50.118;10.272;2023-05-19T08:30:56;98300.41;;;21.69;33.97
47374;BME280;33123;50.118;10.272;2023-05-19T08:33:22;98299.94;;;22.11;33.71
47374;BME280;33123;50.118;10.272;2023-05-19T08:35:50;98279.03;;;22.31;33.37
47374;BME280;33123;50.118;10.272;2023-05-19T08:38:17;98280.16;;;22.30;32.23
47374;BME280;33123;50.118;10.272;2023-05-19T08:40:45;98290.00;;;22.43;31.85
47374;BME280;33123;50.118;10.272;2023-05-19T08:43:12;98293.94;;;21.92;32.41
47374;BME280;33123;50.118;10.272;2023-05-19T08:45:42;98287.09;;;21.86;33.29
47374;BME280;33123;50.118;10.272;2023-05-19T08:48:09;98289.63;;;21.60;32.83
47374;BME280;33123;50.118;10.272;2023-05-19T08:50:39;98259.59;;;21.80;34.08
47374;BME280;33123;50.118;10.272;2023-05-19T08:53:11;98272.72;;;22.27;32.22
47374;BME280;33123;50.118;10.272;2023-05-19T08:55:42;98267.00;;;22.59;31.87
47374;BME280;33123;50.118;10.272;2023-05-19T08:58:11;98240.47;;;23.06;34.78
47374;BME280;33123;50.118;10.272;2023-05-19T09:00:38;98267.22;;;23.46;30.22
47374;BME280;33123;50.118;10.272;2023-05-19T09:03:05;98221.34;;;23.51;29.91
47374;BME280;33123;50.118;10.272;2023-05-19T09:05:32;98243.34;;;23.70;30.26
47374;BME280;33123;50.118;10.272;2023-05-19T09:07:59;98261.41;;;23.79;29.82
47374;BME280;33123;50.118;10.272;2023-05-19T09:10:28;98154.44;;;23.06;30.00
47374;BME280;33123;50.118;10.272;2023-05-19T09:12:55;98259.59;;;24.17;33.06
47374;BME280;33123;50.118;10.272;2023-05-19T09:15:25;98262.69;;;24.45;29.59
47374;BME280;33123;50.118;10.272;2023-05-19T09:18:04;98196.63;;;24.39;29.11
47374;BME280;33123;50.118;10.272;2023-05-19T09:20:31;98256.59;;;24.66;27.94
47374;BME280;33123;50.118;10.272;2023-05-19T09:22:58;98252.31;;;24.94;28.08
47374;BME280;33123;50.118;10.272;2023-05-19T09:25:25;98240.06;;;24.38;28.17
47374;BME280;33123;50.118;10.272;2023-05-19T09:27:54;98259.84;;;24.42;29.84
47374;BME280;33123;50.118;10.272;2023-05-19T09:30:22;98217.16;;;23.97;32.03
47374;BME280;33123;50.118;10.272;2023-05-19T09:32:50;98248.38;;;23.98;29.93
47374;BME280;33123;50.118;10.272;2023-05-19T09:35:17;98207.72;;;23.39;30.20
47374;BME280;33123;50.118;10.272;2023-05-19T09:37:45;98241.75;;;23.43;30.08
47374;BME280;33123;50.118;10.272;2023-05-19T09:40:13;98207.56;;;23.09;31.73
47374;BME280;33123;50.118;10.272;2023-05-19T09:42:40;98186.19;;;22.96;30.85
47374;BME280;33123;50.118;10.272;2023-05-19T09:45:09;98240.47;;;23.15;30.82
47374;BME280;33123;50.118;10.272;2023-05-19T09:47:37;98237.94;;;23.10;31.25
47374;BME280;33123;50.118;10.272;2023-05-19T09:50:07;98225.91;;;22.99;30.78
47374;BME280;33123;50.118;10.272;2023-05-19T09:52:34;98202.91;;;22.84;32.13
47374;BME280;33123;50.118;10.272;2023-05-19T09:55:03;98164.94;;;22.68;32.27
47374;BME280;33123;50.118;10.272;2023-05-19T09:57:34;98218.94;;;23.15;30.72
47374;BME280;33123;50.118;10.272;2023-05-19T10:00:04;98059.06;;;22.03;31.72
47374;BME280;33123;50.118;10.272;2023-05-19T10:02:41;98207.91;;;23.16;31.46
47374;BME280;33123;50.118;10.272;2023-05-19T10:05:10;98223.38;;;23.37;30.25
47374;BME280;33123;50.118;10.272;2023-05-19T10:07:41;98218.00;;;23.37;30.97
47374;BME280;33123;50.118;10.272;2023-05-19T10:10:10;98214.69;;;23.23;30.57
47374;BME280;33123;50.118;10.272;2023-05-19T10:12:38;98122.22;;;22.40;31.07
47374;BME280;33123;50.118;10.272;2023-05-19T10:15:07;98214.75;;;22.65;30.91
47374;BME280;33123;50.118;10.272;2023-05-19T10:17:35;98211.03;;;22.44;31.29
47374;BME280;33123;50.118;10.272;2023-05-19T10:20:07;98213.09;;;22.47;30.56
47374;BME280;33123;50.118;10.272;2023-05-19T10:22:34;98108.28;;;21.90;31.28
47374;BME280;33123;50.118;10.272;2023-05-19T10:25:01;98200.19;;;22.66;30.95
47374;BME280;33123;50.118;10.272;2023-05-19T10:27:28;98152.88;;;22.39;30.19
47374;BME280;33123;50.118;10.272;2023-05-19T10:29:58;98196.97;;;22.47;29.78
47374;BME280;33123;50.118;10.272;2023-05-19T10:32:29;98160.22;;;22.17;30.58
47374;BME280;33123;50.118;10.272;2023-05-19T10:35:26;98151.06;;;22.18;30.45
47374;BME280;33123;50.118;10.272;2023-05-19T10:37:57;98176.25;;;22.48;31.58
47374;BME280;33123;50.118;10.272;2023-05-19T10:40:32;98187.66;;;22.53;30.21
47374;BME280;33123;50.118;10.272;2023-05-19T10:43:12;98182.69;;;22.78;30.71
47374;BME280;33123;50.118;10.272;2023-05-19T10:45:44;98168.75;;;22.84;29.31
47374;BME280;33123;50.118;10.272;2023-05-19T10:48:13;98101.53;;;22.41;29.88
47374;BME280;33123;50.118;10.272;2023-05-19T10:50:42;98106.59;;;22.51;30.55
47374;BME280;33123;50.118;10.272;2023-05-19T10:53:13;98186.84;;;23.10;30.83
47374;BME280;33123;50.118;10.272;2023-05-19T10:55:48;98117.84;;;22.71;31.51
47374;BME280;33123;50.118;10.272;2023-05-19T10:58:37;98191.09;;;23.19;30.63
47374;BME280;33123;50.118;10.272;2023-05-19T11:01:08;98185.88;;;23.32;30.44
47374;BME280;33123;50.118;10.272;2023-05-19T11:03:45;98184.47;;;23.26;29.35
47374;BME280;33123;50.118;10.272;2023-05-19T11:06:24;98183.53;;;23.13;29.45
47374;BME280;33123;50.118;10.272;2023-05-19T11:08:52;98171.44;;;22.84;29.16
47374;BME280;33123;50.118;10.272;2023-05-19T11:11:19;98147.72;;;22.60;31.19
47374;BME280;33123;50.118;10.272;2023-05-19T11:13:47;98142.63;;;22.50;31.22
47374;BME280;33123;50.118;10.272;2023-05-19T11:16:17;98175.91;;;22.89;31.66
47374;BME280;33123;50.118;10.272;2023-05-19T11:18:47;98010.38;;;21.79;29.40
47374;BME280;33123;50.118;10.272;2023-05-19T11:21:14;98153.56;;;22.80;31.93
47374;BME280;33123;50.118;10.272;2023-05-19T11:23:42;98151.84;;;22.66;29.68
47374;BME280;33123;50.118;10.272;2023-05-19T11:26:08;98162.56;;;22.66;29.65
47374;BME280;33123;50.118;10.272;2023-05-19T11:28:35;98153.22;;;22.55;31.56
47374;BME280;33123;50.118;10.272;2023-05-19T11:31:03;98154.78;;;22.48;30.03
47374;BME280;33123;50.118;10.272;2023-05-19T11:33:32;98109.72;;;22.27;31.08
47374;BME280;33123;50.118;10.272;2023-05-19T11:35:59;98007.97;;;21.69;30.92
47374;BME280;33123;50.118;10.272;2023-05-19T11:38:26;98163.03;;;22.60;29.81
47374;BME280;33123;50.118;10.272;2023-05-19T11:40:55;98091.34;;;22.21;31.47
47374;BME280;33123;50.118;10.272;2023-05-19T11:43:22;98156.66;;;22.47;29.68
47374;BME280;33123;50.118;10.272;2023-05-19T11:45:50;98129.16;;;22.42;31.19
47374;BME280;33123;50.118;10.272;2023-05-19T11:48:21;98058.69;;;21.79;29.17
47374;BME280;33123;50.118;10.272;2023-05-19T11:50:48;98102.25;;;22.16;29.12
47374;BME280;33123;50.118;10.272;2023-05-19T11:53:33;98147.22;;;22.58;32.42
47374;BME280;33123;50.118;10.272;2023-05-19T11:56:03;98067.88;;;22.35;31.78
47374;BME280;33123;50.118;10.272;2023-05-19T11:58:30;98141.72;;;22.81;29.33
47374;BME280;33123;50.118;10.272;2023-05-19T12:01:02;98071.34;;;22.53;31.70
47374;BME280;33123;50.118;10.272;2023-05-19T12:03:28;98153.00;;;23.17;31.86
47374;BME280;33123;50.118;10.272;2023-05-19T12:05:57;98121.97;;;23.20;31.45
47374;BME280;33123;50.118;10.272;2023-05-19T12:08:24;97835.81;;;21.49;30.78
47374;BME280;33123;50.118;10.272;2023-05-19T12:10:51;98116.13;;;23.44;31.55
47374;BME280;33123;50.118;10.272;2023-05-19T12:13:20;98047.81;;;22.93;31.40
47374;BME280;33123;50.118;10.272;2023-05-19T12:15:49;98138.38;;;23.62;30.34
47374;BME280;33123;50.118;10.272;2023-05-19T12:18:16;98140.78;;;23.37;29.83
47374;BME280;33123;50.118;10.272;2023-05-19T12:20:42;98142.06;;;23.14;29.79
47374;BME280;33123;50.118;10.272;2023-05-19T12:23:09;98147.28;;;22.93;31.31
47374;BME280;33123;50.118;10.272;2023-05-19T12:25:36;98148.06;;;22.85;31.52
47374;BME280;33123;50.118;10.272;2023-05-19T12:28:03;98151.06;;;22.83;31.08
47374;BME280;33123;50.118;10.272;2023-05-19T12:30:31;98145.50;;;22.80;31.63
47374;BME280;33123;50.118;10.272;2023-05-19T12:32:58;98144.56;;;22.76;31.77
47374;BME280;33123;50.118;10.272;2023-05-19T12:35:25;98155.41;;;22.45;30.64
47374;BME280;33123;50.118;10.272;2023-05-19T12:37:53;98151.53;;;22.20;30.41
47374;BME280;33123;50.118;10.272;2023-05-19T12:40:20;98117.06;;;21.73;30.76
47374;BME280;33123;50.118;10.272;2023-05-19T12:42:48;98150.91;;;21.92;30.69
47374;BME280;33123;50.118;10.272;2023-05-19T12:45:19;98144.16;;;22.03;32.50
47374;BME280;33123;50.118;10.272;2023-05-19T12:47:48;98043.91;;;21.28;30.83
47374;BME280;33123;50.118;10.272;2023-05-19T12:50:15;98145.41;;;21.97;30.62
47374;BME280;33123;50.118;10.272;2023-05-19T12:52:44;98136.44;;;22.01;32.09
47374;BME280;33123;50.118;10.272;2023-05-19T12:55:11;98098.94;;;21.87;31.96
47374;BME280;33123;50.118;10.272;2023-05-19T12:57:39;98138.34;;;22.09;31.06
47374;BME280;33123;50.118;10.272;2023-05-19T13:00:12;98060.97;;;21.63;30.14